createdAt,value
2018-05-02T00:01:47.140Z,93531.90
2018-05-02T00:04:14.742Z,93528.06
2018-05-02T00:06:42.304Z,93525.16
2018-05-02T00:09:09.845Z,93525.98
2018-05-02T00:11:37.422Z,93521.27
2018-05-02T00:14:04.987Z,93524.70
2018-05-02T00:16:32.562Z,93528.78
2018-05-02T00:19:00.429Z,93531.79
2018-05-02T00:21:27.974Z,93530.15
2018-05-02T00:23:55.518Z,93526.80
2018-05-02T00:26:23.252Z,93531.85
2018-05-02T00:35:32.908Z,93526.94
2018-05-02T00:38:00.465Z,93524.84
2018-05-02T00:40:28.004Z,93519.61
2018-05-02T00:42:55.577Z,93528.28
2018-05-02T00:45:23.140Z,93533.59
2018-05-02T00:47:50.702Z,93533.88
2018-05-02T00:50:18.403Z,93534.86
2018-05-02T00:52:45.948Z,93533.16
2018-05-02T00:55:13.502Z,93528.56
2018-05-02T00:57:41.265Z,93532.20
2018-05-02T01:00:08.848Z,93533.94
2018-05-02T01:02:36.423Z,93530.75
2018-05-02T01:05:04.002Z,93530.91
2018-05-02T01:07:31.533Z,93533.73
2018-05-02T01:09:59.207Z,93532.46
2018-05-02T01:12:26.752Z,93537.36
2018-05-02T01:14:54.291Z,93536.06
2018-05-02T01:17:21.872Z,93541.55
2018-05-02T01:19:49.409Z,93533.98
2018-05-02T01:22:16.963Z,93535.84
2018-05-02T01:24:44.548Z,93536.51
2018-05-02T01:27:12.109Z,93538.18
2018-05-02T01:29:39.671Z,93538.66
2018-05-02T01:32:07.360Z,93544.78
2018-05-02T01:34:34.908Z,93542.06
2018-05-02T01:37:02.466Z,93540.67
2018-05-02T01:39:30.179Z,93544.70
2018-05-02T01:41:57.723Z,93539.46
2018-05-02T01:44:25.266Z,93545.98
2018-05-02T01:46:52.867Z,93540.16
2018-05-02T01:49:23.928Z,93542.13
2018-05-02T01:51:51.508Z,93533.76
2018-05-02T01:54:19.242Z,93540.19
2018-05-02T01:56:46.801Z,93539.11
2018-05-02T01:59:14.362Z,93533.39
2018-05-02T02:01:42.236Z,93529.06
2018-05-02T02:04:09.780Z,93525.45
2018-05-02T02:06:37.384Z,93528.10
2018-05-02T02:09:05.830Z,93528.44
2018-05-02T02:11:33.379Z,93527.83
2018-05-02T02:14:00.935Z,93518.89
2018-05-02T02:16:28.521Z,93526.05
2018-05-02T02:18:56.055Z,93520.53
2018-05-02T02:21:23.612Z,93534.67
2018-05-02T02:23:51.193Z,93522.86
2018-05-02T02:26:18.730Z,93531.30
2018-05-02T02:28:46.282Z,93536.02
2018-05-02T02:31:13.898Z,93537.05
2018-05-02T02:33:41.446Z,93534.03
2018-05-02T02:36:08.989Z,93535.77
2018-05-02T02:38:36.552Z,93538.99
2018-05-02T02:41:04.100Z,93542.80
2018-05-02T02:43:31.649Z,93543.44
2018-05-02T02:45:59.239Z,93538.95
2018-05-02T02:48:26.790Z,93546.20
2018-05-02T02:50:54.345Z,93544.20
2018-05-02T02:53:22.229Z,93556.08
2018-05-02T02:55:49.776Z,93559.06
2018-05-02T02:58:17.320Z,93562.63
2018-05-02T03:00:44.916Z,93562.34
2018-05-02T03:03:12.456Z,93566.59
2018-05-02T03:05:40.025Z,93564.12
2018-05-02T03:08:07.693Z,93565.47
2018-05-02T03:10:35.229Z,93569.33
2018-05-02T03:13:02.772Z,93567.34
2018-05-02T03:15:30.496Z,93568.19
2018-05-02T03:17:58.043Z,93571.91
2018-05-02T03:20:25.590Z,93578.05
2018-05-02T03:22:53.185Z,93569.76
2018-05-02T03:25:20.748Z,93578.23
2018-05-02T03:27:48.295Z,93583.91
2018-05-02T03:30:16.159Z,93577.53
2018-05-02T03:32:43.711Z,93574.85
2018-05-02T03:35:11.247Z,93572.64
2018-05-02T03:37:38.806Z,93572.05
2018-05-02T03:40:06.374Z,93574.98
2018-05-02T03:42:33.922Z,93579.56
2018-05-02T03:45:01.597Z,93570.61
2018-05-02T03:47:29.136Z,93568.34
2018-05-02T03:49:56.711Z,93568.13
2018-05-02T03:52:24.329Z,93566.19
2018-05-02T03:54:51.882Z,93557.77
2018-05-02T03:57:19.447Z,93560.23
2018-05-02T03:59:58.857Z,93560.40
2018-05-02T04:02:38.035Z,93554.27
2018-05-02T04:05:17.405Z,93550.69
2018-05-02T04:07:44.972Z,93544.64
2018-05-02T04:10:12.691Z,93547.13
2018-05-02T04:12:40.268Z,93542.38
2018-05-02T04:15:07.807Z,93541.19
2018-05-02T04:17:35.521Z,93545.78
2018-05-02T04:20:03.081Z,93539.30
2018-05-02T04:22:30.632Z,93544.27
2018-05-02T04:24:58.376Z,93541.64
2018-05-02T04:27:25.909Z,93541.80
2018-05-02T04:29:53.441Z,93552.36
2018-05-02T04:32:21.004Z,93545.69
2018-05-02T04:34:48.541Z,93549.06
2018-05-02T04:37:16.074Z,93550.97
2018-05-02T04:39:43.677Z,93546.95
2018-05-02T04:42:11.225Z,93552.75
2018-05-02T04:44:38.768Z,93546.53
2018-05-02T04:47:06.356Z,93546.64
2018-05-02T04:49:33.903Z,93544.55
2018-05-02T04:52:01.443Z,93544.94
2018-05-02T04:54:29.336Z,93543.99
2018-05-02T04:56:56.895Z,93542.25
2018-05-02T04:59:24.498Z,93533.77
2018-05-02T05:01:52.081Z,93540.13
2018-05-02T05:04:19.627Z,93533.16
2018-05-02T05:06:47.159Z,93532.83
2018-05-02T05:09:15.057Z,93533.49
2018-05-02T05:11:43.376Z,93543.30
2018-05-02T05:14:10.923Z,93542.80
2018-05-02T05:16:38.592Z,93545.87
2018-05-02T05:19:06.129Z,93546.19
2018-05-02T05:21:33.674Z,93540.72
2018-05-02T05:24:01.431Z,93547.83
2018-05-02T05:26:29.024Z,93551.69
2018-05-02T05:28:56.569Z,93550.71
2018-05-02T05:31:24.149Z,93548.00
2018-05-02T05:33:51.703Z,93543.38
2018-05-02T05:36:19.239Z,93552.91
2018-05-02T05:38:46.970Z,93554.20
2018-05-02T05:41:14.529Z,93550.28
2018-05-02T05:43:42.179Z,93562.72
2018-05-02T05:46:09.693Z,93563.69
2018-05-02T05:48:37.230Z,93563.79
2018-05-02T05:51:04.810Z,93562.11
2018-05-02T05:53:32.384Z,93566.77
2018-05-02T05:55:59.927Z,93560.25
2018-05-02T05:58:27.579Z,93563.20
2018-05-02T06:00:55.174Z,93566.49
2018-05-02T06:03:22.711Z,93570.72
2018-05-02T06:05:50.285Z,93572.88
2018-05-02T06:08:19.054Z,93569.52
2018-05-02T06:10:46.583Z,93574.22
2018-05-02T06:13:14.136Z,93575.91
2018-05-02T06:15:41.809Z,93567.93
2018-05-02T06:18:09.353Z,93578.72
2018-05-02T06:20:36.944Z,93578.44
2018-05-02T06:23:04.522Z,93576.98
2018-05-02T06:25:32.986Z,93571.36
2018-05-02T06:28:00.541Z,93576.20
2018-05-02T06:30:28.509Z,93571.54
2018-05-02T06:32:56.060Z,93569.16
2018-05-02T06:35:23.633Z,93569.38
2018-05-02T06:37:51.445Z,93562.67
2018-05-02T06:40:18.993Z,93565.65
2018-05-02T06:42:46.551Z,93571.00
2018-05-02T06:45:14.153Z,93564.53
2018-05-02T06:47:41.712Z,93566.23
2018-05-02T06:50:09.255Z,93568.63
2018-05-02T06:52:36.891Z,93567.48
2018-05-02T06:55:04.431Z,93569.16
2018-05-02T06:57:32.007Z,93565.72
2018-05-02T06:59:59.612Z,93573.03
2018-05-02T07:02:27.176Z,93565.22
2018-05-02T07:04:54.748Z,93562.66
2018-05-02T07:07:22.305Z,93567.19
2018-05-02T07:09:49.865Z,93564.30
2018-05-02T07:12:17.460Z,93567.62
2018-05-02T07:14:45.024Z,93567.09
2018-05-02T07:17:12.574Z,93563.77
2018-05-02T07:19:40.167Z,93572.02
2018-05-02T07:22:07.722Z,93569.13
2018-05-02T07:24:35.283Z,93570.92
2018-05-02T07:27:03.135Z,93562.48
2018-05-02T07:29:30.675Z,93564.25
2018-05-02T07:31:58.246Z,93560.17
2018-05-02T07:34:25.815Z,93559.23
2018-05-02T07:36:53.368Z,93561.55
2018-05-02T07:39:20.931Z,93565.53
2018-05-02T07:41:48.512Z,93555.08
2018-05-02T07:44:16.060Z,93548.00
2018-05-02T07:46:43.611Z,93549.73
2018-05-02T07:49:11.341Z,93546.04
2018-05-02T09:00:18.204Z,93510.30
2018-05-02T09:02:45.749Z,93515.78
2018-05-02T09:05:13.292Z,93513.09
2018-05-02T09:07:40.844Z,93511.11
2018-05-02T09:10:08.396Z,93516.91
2018-05-02T09:12:35.991Z,93510.77
2018-05-02T09:15:03.575Z,93510.45
2018-05-02T09:17:31.120Z,93503.10
2018-05-02T09:19:58.696Z,93504.73
2018-05-02T09:22:26.272Z,93499.28
2018-05-02T09:24:53.826Z,93498.23
2018-05-02T09:27:21.555Z,93495.20
2018-05-02T09:29:49.086Z,93495.55
2018-05-02T09:32:16.623Z,93495.64
2018-05-02T09:34:44.199Z,93494.92
2018-05-02T09:37:11.736Z,93496.67
2018-05-02T09:39:39.286Z,93491.75
2018-05-02T09:54:51.480Z,93482.53
2018-05-02T09:57:19.030Z,93479.53
2018-05-02T09:59:46.592Z,93470.47
2018-05-02T10:02:14.169Z,93470.45
2018-05-02T10:04:41.715Z,93475.62
2018-05-02T10:07:09.243Z,93464.37
2018-05-02T10:09:37.107Z,93469.00
2018-05-02T10:12:04.687Z,93459.02
2018-05-02T10:14:32.227Z,93459.34
2018-05-02T10:16:59.816Z,93461.36
2018-05-02T10:19:27.357Z,93460.32
2018-05-02T10:21:54.895Z,93456.44
2018-05-02T10:24:22.807Z,93454.27
2018-05-02T10:26:50.372Z,93450.72
2018-05-02T10:29:17.933Z,93452.27
2018-05-02T10:31:45.705Z,93444.08
2018-05-02T10:34:13.259Z,93441.80
2018-05-02T10:36:40.817Z,93444.13
2018-05-02T10:39:08.567Z,93439.28
2018-05-02T10:41:36.118Z,93442.18
2018-05-02T10:44:03.678Z,93438.38
2018-05-02T10:46:31.407Z,93434.61
2018-05-02T10:48:58.962Z,93441.92
2018-05-02T10:51:26.526Z,93437.98
2018-05-02T10:53:54.204Z,93426.08
2018-05-02T10:56:21.753Z,93434.80
2018-05-02T10:58:49.316Z,93431.45
2018-05-02T11:01:16.952Z,93424.37
2018-05-02T11:03:44.506Z,93425.98
2018-05-02T11:06:12.083Z,93416.84
2018-05-02T11:08:39.693Z,93421.03
2018-05-02T11:11:07.235Z,93418.36
2018-05-02T11:13:34.809Z,93418.05
2018-05-02T11:16:02.572Z,93420.58
2018-05-02T11:18:30.116Z,93420.14
2018-05-02T11:20:57.679Z,93416.76
2018-05-02T11:23:25.252Z,93407.11
2018-05-02T11:25:52.798Z,93416.75
2018-05-02T11:28:20.383Z,93405.21
2018-05-02T11:30:47.942Z,93398.33
2018-05-02T11:33:15.499Z,93399.77
2018-05-02T11:35:43.056Z,93392.41
2018-05-02T11:38:10.631Z,93390.79
2018-05-02T11:40:38.199Z,93390.25
2018-05-02T11:43:05.750Z,93381.34
2018-05-02T11:45:33.355Z,93379.77
2018-05-02T11:48:00.911Z,93373.20
2018-05-02T11:50:28.449Z,93368.52
2018-05-02T11:52:56.027Z,93361.55
2018-05-02T11:55:23.590Z,93362.94
2018-05-02T11:57:51.223Z,93353.19
2018-05-02T12:00:18.898Z,93355.44
2018-05-02T12:02:46.460Z,93350.64
2018-05-02T12:05:14.032Z,93351.07
2018-05-02T12:07:41.593Z,93347.41
2018-05-02T12:10:09.142Z,93351.44
2018-05-02T12:12:36.742Z,93334.88
2018-05-02T12:15:04.350Z,93338.26
2018-05-02T12:17:31.903Z,93331.94
2018-05-02T12:19:59.506Z,93328.62
2018-05-02T12:22:27.056Z,93318.25
2018-05-02T12:24:54.591Z,93313.78
2018-05-02T12:27:22.167Z,93323.42
2018-05-02T12:29:49.754Z,93326.77
2018-05-02T12:32:17.352Z,93316.86
2018-05-02T12:34:45.046Z,93313.69
2018-05-02T12:37:12.586Z,93312.69
2018-05-02T12:39:40.147Z,93306.91
2018-05-02T12:42:07.875Z,93306.98
2018-05-02T12:44:35.425Z,93296.25
2018-05-02T12:47:03.015Z,93293.76
2018-05-02T12:49:30.738Z,93286.05
2018-05-02T12:51:58.295Z,93285.74
2018-05-02T12:54:25.842Z,93289.91
2018-05-02T12:56:53.413Z,93287.31
2018-05-02T12:59:20.972Z,93273.13
2018-05-02T13:01:48.519Z,93280.13
2018-05-02T13:04:16.103Z,93276.73
2018-05-02T13:06:43.653Z,93282.81
2018-05-02T13:09:11.191Z,93272.75
2018-05-02T13:11:38.919Z,93289.94
2018-05-02T13:14:06.466Z,93277.19
2018-05-02T13:16:34.004Z,93279.55
2018-05-02T13:19:01.560Z,93275.48
2018-05-02T13:21:29.100Z,93272.55
2018-05-02T13:23:56.661Z,93274.84
2018-05-02T13:26:24.254Z,93270.34
2018-05-02T13:28:51.806Z,93269.72
2018-05-02T13:31:19.345Z,93265.90
2018-05-02T13:33:47.110Z,93265.79
2018-05-02T13:36:14.656Z,93255.66
2018-05-02T13:38:42.208Z,93255.06
2018-05-02T13:41:10.084Z,93255.72
2018-05-02T13:43:37.620Z,93262.78
2018-05-02T13:46:05.161Z,93259.56
2018-05-02T13:48:32.753Z,93257.27
2018-05-02T13:51:00.310Z,93261.59
2018-05-02T13:53:27.850Z,93250.05
2018-05-02T13:55:55.529Z,93257.02
2018-05-02T13:58:23.103Z,93265.69
2018-05-02T14:00:50.679Z,93260.17
2018-05-02T14:03:18.434Z,93271.70
2018-05-02T14:05:45.971Z,93268.58
2018-05-02T14:08:13.534Z,93275.92
2018-05-02T14:10:41.152Z,93274.48
2018-05-02T14:13:08.707Z,93270.84
2018-05-02T14:15:36.239Z,93282.75
2018-05-02T14:18:03.960Z,93282.27
2018-05-02T14:20:31.637Z,93288.17
2018-05-02T14:22:59.188Z,93281.14
2018-05-02T14:25:27.096Z,93285.42
2018-05-02T14:27:54.641Z,93289.98
2018-05-02T14:30:22.194Z,93293.06
2018-05-02T14:32:49.821Z,93300.27
2018-05-02T14:35:17.359Z,93302.90
2018-05-02T14:37:44.911Z,93299.98
2018-05-02T14:40:12.475Z,93295.13
2018-05-02T14:42:40.016Z,93292.55
2018-05-02T14:45:07.547Z,93281.03
2018-05-02T14:47:35.499Z,93288.57
2018-05-02T14:50:03.082Z,93286.17
2018-05-02T14:52:30.627Z,93293.77
2018-05-02T14:54:58.236Z,93294.24
2018-05-02T14:57:25.784Z,93295.94
2018-05-02T14:59:53.346Z,93293.52
2018-05-02T15:02:21.001Z,93292.21
2018-05-02T15:04:48.540Z,93296.09
2018-05-02T15:07:16.083Z,93292.90
2018-05-02T15:09:43.682Z,93295.09
2018-05-02T15:12:11.237Z,93306.00
2018-05-02T15:14:38.777Z,93307.59
2018-05-02T15:17:06.447Z,93308.16
2018-05-02T15:19:33.991Z,93315.29
2018-05-02T15:22:01.564Z,93313.63
2018-05-02T15:24:29.137Z,93314.48
2018-05-02T15:26:56.724Z,93317.45
2018-05-02T15:29:24.274Z,93324.95
2018-05-02T15:31:52.051Z,93327.33
2018-05-02T15:34:19.618Z,93325.13
2018-05-02T15:36:47.186Z,93325.69
2018-05-02T15:39:14.798Z,93327.17
2018-05-02T15:41:42.348Z,93324.67
2018-05-02T15:44:09.913Z,93333.24
2018-05-02T15:46:37.580Z,93335.80
2018-05-02T15:49:05.157Z,93335.06
2018-05-02T15:51:32.695Z,93338.38
2018-05-02T15:54:00.380Z,93343.75
2018-05-02T15:56:27.941Z,93345.91
2018-05-02T15:58:55.486Z,93340.64
2018-05-02T16:01:23.645Z,93344.41
2018-05-02T16:03:51.182Z,93353.80
2018-05-02T16:06:18.742Z,93351.92
2018-05-02T16:08:46.324Z,93347.44
2018-05-02T16:11:13.875Z,93346.45
2018-05-02T16:13:41.439Z,93346.11
2018-05-02T16:16:09.137Z,93345.19
2018-05-02T16:18:36.684Z,93349.32
2018-05-02T16:21:04.232Z,93347.95
2018-05-02T16:23:32.093Z,93349.73
2018-05-02T16:25:59.637Z,93351.12
2018-05-02T16:28:27.180Z,93353.38
2018-05-02T16:30:54.915Z,93350.20
2018-05-02T16:33:22.511Z,93349.22
2018-05-02T16:35:50.041Z,93344.06
2018-05-02T16:38:17.838Z,93343.75
2018-05-02T16:40:45.338Z,93347.24
2018-05-02T16:43:12.865Z,93342.24
2018-05-02T16:45:40.723Z,93343.67
2018-05-02T16:48:08.260Z,93336.87
2018-05-02T16:50:35.806Z,93342.80
2018-05-02T16:53:03.404Z,93340.84
2018-05-02T16:55:30.969Z,93341.19
2018-05-02T16:57:58.524Z,93333.34
2018-05-02T17:00:26.391Z,93337.39
2018-05-02T17:02:53.945Z,93343.05
2018-05-02T17:05:21.497Z,93341.69
2018-05-02T17:07:49.041Z,93338.38
2018-05-02T17:10:16.600Z,93338.91
2018-05-02T17:12:44.330Z,93342.61
2018-05-02T17:15:11.899Z,93334.28
2018-05-02T17:17:39.444Z,93338.73
2018-05-02T17:20:07.054Z,93339.66
2018-05-02T17:22:34.624Z,93331.95
2018-05-02T17:25:02.180Z,93336.00
2018-05-02T17:27:29.912Z,93340.63
2018-05-02T17:29:57.455Z,93334.52
2018-05-02T17:32:25.004Z,93342.97
2018-05-02T17:34:52.700Z,93348.22
2018-05-02T17:37:20.250Z,93346.59
2018-05-02T17:39:47.816Z,93346.39
2018-05-02T17:42:15.769Z,93356.52
2018-05-02T17:44:43.307Z,93349.03
2018-05-02T17:47:10.859Z,93354.42
2018-05-02T17:49:38.601Z,93347.73
2018-05-02T17:52:06.249Z,93355.61
2018-05-02T17:54:33.819Z,93356.38
2018-05-02T17:57:01.411Z,93362.31
2018-05-02T17:59:28.967Z,93362.07
2018-05-02T18:01:56.541Z,93362.22
2018-05-02T18:04:24.129Z,93363.23
2018-05-02T18:06:51.726Z,93368.92
2018-05-02T18:09:19.283Z,93365.34
2018-05-02T18:11:47.005Z,93370.15
2018-05-02T18:14:14.583Z,93369.20
2018-05-02T18:16:42.173Z,93368.57
2018-05-02T18:19:09.921Z,93369.68
2018-05-02T18:21:37.561Z,93375.75
2018-05-02T18:24:05.093Z,93378.34
2018-05-02T18:26:32.777Z,93372.64
2018-05-02T18:29:00.353Z,93383.95
2018-05-02T18:31:27.925Z,93381.94
2018-05-02T18:33:55.955Z,93391.75
2018-05-02T18:36:23.568Z,93392.61
2018-05-02T18:38:51.106Z,93393.06
2018-05-02T18:41:18.712Z,93399.05
2018-05-02T18:43:46.278Z,93401.44
2018-05-02T18:46:13.872Z,93400.09
2018-05-02T18:48:41.791Z,93401.11
2018-05-02T18:51:09.412Z,93405.42
2018-05-02T18:53:36.994Z,93401.44
2018-05-02T18:56:04.753Z,93407.02
2018-05-02T18:58:32.323Z,93405.08
2018-05-02T19:00:59.890Z,93408.04
2018-05-02T19:03:27.500Z,93415.89
2018-05-02T19:05:55.070Z,93413.92
2018-05-02T19:08:22.680Z,93404.86
2018-05-02T19:10:50.263Z,93409.08
2018-05-02T19:13:17.836Z,93413.39
2018-05-02T19:15:45.417Z,93412.66
2018-05-02T19:18:18.506Z,93407.04
2018-05-02T19:20:46.095Z,93404.88
2018-05-02T19:23:13.644Z,93409.20
2018-05-02T19:25:46.707Z,93407.94
2018-05-02T19:28:14.354Z,93411.31
2018-05-02T19:30:42.036Z,93411.02
2018-05-02T19:33:15.095Z,93413.27
2018-05-02T19:35:42.726Z,93411.05
2018-05-02T19:38:11.309Z,93405.77
2018-05-02T19:40:44.499Z,93402.48
2018-05-02T19:43:17.681Z,93403.22
2018-05-02T19:45:45.390Z,93389.40
2018-05-02T19:48:13.569Z,93388.22
2018-05-02T19:50:41.268Z,93387.02
2018-05-02T19:53:08.906Z,93386.58
2018-05-02T19:55:36.475Z,93384.44
2018-05-02T19:58:04.050Z,93375.70
2018-05-02T20:00:37.062Z,93379.30
2018-05-02T20:03:04.644Z,93384.75
2018-05-02T20:05:32.198Z,93386.88
2018-05-02T20:07:59.757Z,93376.23
2018-05-02T20:10:32.714Z,93368.88
2018-05-02T20:13:05.883Z,93366.96
2018-05-02T20:15:33.440Z,93364.95
2018-05-02T20:18:01.009Z,93365.02
2018-05-02T20:20:28.589Z,93359.72
2018-05-02T20:22:56.131Z,93362.80
2018-05-02T20:25:23.720Z,93365.30
2018-05-02T20:27:51.283Z,93364.19
2018-05-02T20:30:18.831Z,93358.61
2018-05-02T20:32:46.384Z,93354.69
2018-05-02T20:35:13.951Z,93363.68
2018-05-02T20:37:41.505Z,93365.52
2018-05-02T20:40:09.050Z,93363.56
2018-05-02T20:42:36.968Z,93363.48
2018-05-02T20:45:04.538Z,93358.57
2018-05-02T20:47:32.111Z,93362.95
2018-05-02T20:49:59.693Z,93350.30
2018-05-02T20:52:27.227Z,93353.95
2018-05-02T20:54:54.896Z,93355.79
2018-05-02T20:57:22.433Z,93350.30
2018-05-02T20:59:50.004Z,93345.33
2018-05-02T21:02:17.559Z,93354.02
2018-05-02T21:04:45.168Z,93351.33
2018-05-02T21:07:12.718Z,93358.49
2018-05-02T21:09:40.264Z,93372.70
2018-05-02T21:12:07.998Z,93371.94
2018-05-02T21:14:35.629Z,93370.58
2018-05-02T21:17:03.153Z,93374.23
2018-05-02T21:19:30.731Z,93372.45
2018-05-02T21:21:58.263Z,93380.02
2018-05-02T21:24:25.815Z,93383.77
2018-05-02T21:26:53.559Z,93379.39
2018-05-02T21:29:21.114Z,93381.05
2018-05-02T21:31:48.654Z,93384.87
2018-05-02T21:34:16.332Z,93388.98
2018-05-02T21:36:43.867Z,93389.73
2018-05-02T21:39:11.434Z,93381.53
2018-05-02T21:41:39.141Z,93382.70
2018-05-02T21:44:06.680Z,93381.17
2018-05-02T21:46:34.215Z,93387.77
2018-05-02T21:49:02.082Z,93392.28
2018-05-02T21:51:29.630Z,93396.83
2018-05-02T21:53:57.207Z,93393.89
2018-05-02T21:56:24.937Z,93391.95
2018-05-02T21:58:52.486Z,93403.32
2018-05-02T22:01:20.044Z,93407.83
2018-05-02T22:03:47.629Z,93402.77
2018-05-02T22:06:15.167Z,93410.25
2018-05-02T22:08:42.713Z,93403.86
2018-05-02T22:11:10.476Z,93407.14
2018-05-02T22:13:38.026Z,93410.52
2018-05-02T22:16:05.582Z,93410.81
2018-05-02T22:18:33.154Z,93416.31
2018-05-02T22:21:00.712Z,93406.95
2018-05-02T22:23:28.254Z,93406.11
2018-05-02T22:25:55.900Z,93405.23
2018-05-02T22:28:23.439Z,93404.70
2018-05-02T22:30:50.989Z,93408.23
2018-05-02T22:33:18.562Z,93404.83
2018-05-02T22:35:46.096Z,93407.61
2018-05-02T22:38:13.640Z,93406.39
2018-05-02T22:40:41.320Z,93400.98
2018-05-02T22:43:08.868Z,93401.17
2018-05-02T22:45:36.417Z,93399.45
2018-05-02T22:48:04.138Z,93397.11
2018-05-02T22:50:31.666Z,93403.06
2018-05-02T22:52:59.210Z,93404.36
2018-05-02T22:55:26.928Z,93404.19
2018-05-02T22:57:54.476Z,93404.19
2018-05-02T23:00:22.028Z,93402.10
2018-05-02T23:02:49.608Z,93396.42
2018-05-02T23:05:17.147Z,93404.33
2018-05-02T23:07:44.705Z,93402.66
2018-05-02T23:10:12.618Z,93398.72
2018-05-02T23:12:40.163Z,93400.98
2018-05-02T23:15:07.707Z,93395.20
2018-05-02T23:17:35.604Z,93393.64
2018-05-02T23:20:03.142Z,93399.39
2018-05-02T23:36:15.348Z,93385.34
2018-05-02T23:38:42.904Z,93390.14
2018-05-02T23:41:10.447Z,93389.42
2018-05-02T23:43:38.122Z,93392.05
2018-05-02T23:46:05.667Z,93395.53
2018-05-02T23:48:33.204Z,93383.19
2018-05-02T23:51:00.779Z,93389.06
2018-05-02T23:53:28.320Z,93382.06
2018-05-02T23:55:55.877Z,93383.03
2018-05-02T23:58:23.611Z,93387.43
